Time;durP1;ratioP1;P1;durP2;ratioP2;P2;SDS_P1;SDS_P2;PMS_P1;PMS_P2;Temp;Humidity;BMP_temperature;BMP_pressure;BME280_temperature;BME280_humidity;BME280_pressure;Samples;Min_cycle;Max_cycle;Signal;HPM_P1;HPM_P2
2022/11/24 00:00:43;;;;;;;26.93;6.20;;;;;;;6.87;100.00;100191.31;5266458;28;20028;-71
2022/11/24 00:03:14;;;;;;;17.60;4.63;;;;;;;6.88;100.00;100194.75;5259788;28;20162;-72
2022/11/24 00:05:45;;;;;;;22.57;6.37;;;;;;;6.89;100.00;100191.22;5261267;28;20070;-71
2022/11/24 00:08:17;;;;;;;22.87;5.23;;;;;;;6.76;100.00;100173.69;5265326;28;20103;-72
2022/11/24 00:10:48;;;;;;;24.70;3.60;;;;;;;6.86;100.00;100188.81;5273486;28;20040;-71
2022/11/24 00:13:19;;;;;;;23.43;4.53;;;;;;;6.83;100.00;100195.00;5273641;28;20020;-71
2022/11/24 00:15:51;;;;;;;23.30;5.20;;;;;;;6.85;100.00;100197.53;5260941;28;20079;-71
2022/11/24 00:18:22;;;;;;;25.07;4.63;;;;;;;6.74;100.00;100196.34;5259196;28;20502;-72
2022/11/24 00:20:53;;;;;;;19.10;5.43;;;;;;;6.72;100.00;100190.38;5266950;28;20083;-71
2022/11/24 00:23:25;;;;;;;15.73;4.37;;;;;;;6.84;100.00;100214.06;5272251;28;20063;-71
2022/11/24 00:26:08;;;;;;;28.40;6.93;;;;;;;6.89;100.00;100219.88;5265867;28;20509;-72
2022/11/24 00:28:40;;;;;;;20.07;3.93;;;;;;;6.84;100.00;100221.88;5269433;28;20578;-72
2022/11/24 00:31:21;;;;;;;20.07;4.27;;;;;;;6.82;100.00;100221.97;5264815;28;20534;-71
2022/11/24 00:33:57;;;;;;;27.13;4.50;;;;;;;6.86;100.00;100220.03;5270651;28;20028;-72
2022/11/24 00:36:31;;;;;;;20.13;4.00;;;;;;;6.70;100.00;100194.00;5272962;28;20108;-72
2022/11/24 00:39:09;;;;;;;20.23;4.00;;;;;;;6.80;100.00;100212.56;5269505;28;20021;-71
2022/11/24 00:41:41;;;;;;;18.87;4.23;;;;;;;6.81;100.00;100214.25;5263386;28;20020;-72
2022/11/24 00:44:12;;;;;;;26.40;5.30;;;;;;;6.78;100.00;100213.47;5268639;28;20123;-71
2022/11/24 00:46:44;;;;;;;30.90;5.93;;;;;;;6.81;100.00;100212.47;5273240;28;20111;-72
2022/11/24 00:49:15;;;;;;;26.03;4.47;;;;;;;6.80;100.00;100217.75;5268731;28;21142;-72
2022/11/24 00:51:46;;;;;;;26.87;6.53;;;;;;;6.77;100.00;100222.19;5274264;28;20028;-71
2022/11/24 00:54:18;;;;;;;16.73;4.27;;;;;;;6.77;100.00;100224.81;5270647;28;20035;-71
2022/11/24 00:56:50;;;;;;;13.33;3.57;;;;;;;6.80;100.00;100233.38;5271276;28;20037;-71
2022/11/24 00:59:21;;;;;;;22.90;4.57;;;;;;;6.77;100.00;100227.41;5260158;28;20484;-71
2022/11/24 01:01:52;;;;;;;25.13;5.03;;;;;;;6.77;100.00;100235.22;5262015;28;20525;-71
2022/11/24 01:04:24;;;;;;;15.00;4.13;;;;;;;6.77;100.00;100234.41;5253232;28;20590;-71
2022/11/24 01:06:55;;;;;;;19.10;5.90;;;;;;;6.75;100.00;100244.88;5272204;28;20032;-71
2022/11/24 01:09:26;;;;;;;20.43;3.30;;;;;;;6.74;100.00;100245.78;5270837;28;20064;-71
2022/11/24 01:12:01;;;;;;;15.03;3.83;;;;;;;6.75;100.00;100254.44;5271872;28;20032;-71
2022/11/24 01:14:32;;;;;;;19.52;4.63;;;;;;;6.69;100.00;100242.59;5272419;28;20032;-71
2022/11/24 01:17:03;;;;;;;26.23;5.63;;;;;;;6.74;100.00;100255.34;5271952;28;20532;-71
2022/11/24 01:19:35;;;;;;;23.73;5.40;;;;;;;6.69;100.00;100250.41;5270454;28;20166;-71
2022/11/24 01:22:06;;;;;;;18.40;3.67;;;;;;;6.64;100.00;100253.25;5269875;28;20069;-71
2022/11/24 01:24:38;;;;;;;12.60;3.00;;;;;;;6.61;100.00;100252.56;5261213;28;20119;-71
2022/11/24 01:27:09;;;;;;;17.60;3.67;;;;;;;6.70;100.00;100256.47;5270503;28;20374;-71
2022/11/24 01:29:40;;;;;;;24.17;3.60;;;;;;;6.55;100.00;100245.94;5273024;28;20111;-72
2022/11/24 01:32:11;;;;;;;21.17;4.33;;;;;;;6.63;100.00;100253.34;5272943;28;20544;-71
2022/11/24 01:34:43;;;;;;;22.67;3.70;;;;;;;6.64;100.00;100257.63;5273289;28;20070;-71
2022/11/24 01:37:14;;;;;;;24.93;4.33;;;;;;;6.62;100.00;100262.06;5258605;28;20111;-71
2022/11/24 01:39:45;;;;;;;19.93;4.37;;;;;;;6.58;100.00;100258.78;5272356;28;20036;-71
2022/11/24 01:42:17;;;;;;;21.67;3.10;;;;;;;6.56;100.00;100260.63;5271066;28;20028;-71
2022/11/24 01:45:10;;;;;;;19.30;4.13;;;;;;;6.58;100.00;100271.78;5273064;28;20054;-71
2022/11/24 01:47:42;;;;;;;26.83;3.70;;;;;;;6.52;100.00;100274.72;5257285;28;20031;-71
2022/11/24 01:50:15;;;;;;;18.53;5.13;;;;;;;6.53;100.00;100272.03;5272844;28;20029;-70
2022/11/24 01:52:51;;;;;;;19.57;4.73;;;;;;;6.51;100.00;100278.25;5272098;28;20028;-71
2022/11/24 01:55:29;;;;;;;23.50;4.23;;;;;;;6.54;100.00;100278.91;5262422;28;20029;-71
2022/11/24 01:58:11;;;;;;;22.17;5.00;;;;;;;6.49;100.00;100277.47;5266484;28;20036;-70
2022/11/24 02:00:44;;;;;;;19.77;4.87;;;;;;;6.51;100.00;100284.28;5266129;28;20024;-71
2022/11/24 02:03:21;;;;;;;19.57;3.83;;;;;;;6.52;100.00;100285.97;5271967;28;20035;-71
2022/11/24 02:06:08;;;;;;;21.93;4.73;;;;;;;6.56;100.00;100296.22;5271409;28;20068;-71
2022/11/24 02:08:47;;;;;;;16.70;3.47;;;;;;;6.50;100.00;100286.94;5250423;28;20060;-71
2022/11/24 02:11:21;;;;;;;23.00;5.43;;;;;;;6.54;100.00;100291.91;5251656;28;20037;-71
2022/11/24 02:13:53;;;;;;;20.90;3.72;;;;;;;6.52;100.00;100301.56;5252537;28;20497;-71
2022/11/24 02:16:25;;;;;;;18.73;4.47;;;;;;;6.56;100.00;100301.41;5255405;28;20032;-71
2022/11/24 02:18:57;;;;;;;28.00;6.43;;;;;;;6.51;100.00;100299.06;5265534;28;20031;-71
2022/11/24 02:21:28;;;;;;;21.07;4.17;;;;;;;6.46;100.00;100288.88;5275671;28;20025;-71
2022/11/24 02:24:22;;;;;;;19.07;5.40;;;;;;;6.55;100.00;100310.97;5261989;28;20020;-72
2022/11/24 02:26:53;;;;;;;20.80;4.70;;;;;;;6.50;100.00;100297.34;5260753;28;20033;-71
2022/11/24 02:29:24;;;;;;;24.53;5.40;;;;;;;6.39;100.00;100292.69;5255557;28;20018;-72
2022/11/24 02:32:03;;;;;;;25.27;5.07;;;;;;;6.54;100.00;100304.91;5270633;28;20078;-71
2022/11/24 02:34:35;;;;;;;26.87;5.93;;;;;;;6.56;100.00;100307.47;5270920;28;20021;-71
2022/11/24 02:37:06;;;;;;;18.73;4.70;;;;;;;6.54;100.00;100310.13;5266287;28;20059;-71
2022/11/24 02:39:37;;;;;;;22.07;5.00;;;;;;;6.55;100.00;100310.97;5275010;28;20054;-72
2022/11/24 02:42:12;;;;;;;30.03;5.97;;;;;;;6.61;100.00;100315.03;5274196;28;20527;-71
2022/11/24 02:44:47;;;;;;;20.77;5.15;;;;;;;6.59;100.00;100314.25;5268266;28;20025;-71
2022/11/24 02:47:19;;;;;;;31.13;6.57;;;;;;;6.52;100.00;100304.19;5268872;28;20028;-71
2022/11/24 02:49:50;;;;;;;17.57;5.70;;;;;;;6.67;100.00;100314.69;5274807;28;20654;-72
2022/11/24 02:52:22;;;;;;;31.30;6.00;;;;;;;6.66;100.00;100310.44;5270643;28;20234;-72
2022/11/24 02:54:53;;;;;;;21.10;5.53;;;;;;;6.69;100.00;100320.66;5269069;28;20475;-71
2022/11/24 02:57:24;;;;;;;22.53;5.10;;;;;;;6.70;100.00;100322.38;5267790;28;20032;-71
2022/11/24 02:59:56;;;;;;;18.60;4.37;;;;;;;6.74;100.00;100334.28;5263303;28;20028;-71
2022/11/24 03:02:27;;;;;;;18.37;4.20;;;;;;;6.81;100.00;100328.78;5263048;28;20040;-71
2022/11/24 03:04:58;;;;;;;17.80;4.90;;;;;;;6.84;100.00;100326.00;5273772;28;20028;-71
2022/11/24 03:07:30;;;;;;;23.73;5.57;;;;;;;6.89;100.00;100329.22;5271367;28;20418;-71
2022/11/24 03:10:01;;;;;;;29.13;6.77;;;;;;;6.85;100.00;100327.69;5261181;28;20041;-71
2022/11/24 03:12:32;;;;;;;32.53;6.83;;;;;;;6.85;100.00;100332.88;5275294;28;20025;-71
2022/11/24 03:15:05;;;;;;;29.83;5.63;;;;;;;6.87;100.00;100331.03;5274658;28;20029;-71
2022/11/24 03:17:36;;;;;;;23.50;5.57;;;;;;;6.83;100.00;100334.72;5273162;28;20025;-71
2022/11/24 03:20:08;;;;;;;27.50;7.43;;;;;;;6.89;100.00;100337.84;5274011;28;20037;-70
2022/11/24 03:22:40;;;;;;;21.87;5.00;;;;;;;6.86;100.00;100326.78;5262556;28;20419;-71
2022/11/24 03:25:11;;;;;;;24.97;5.10;;;;;;;6.97;100.00;100339.19;5271420;28;20027;-71
2022/11/24 03:27:43;;;;;;;25.20;6.13;;;;;;;7.01;100.00;100348.53;5267403;28;20051;-71
2022/11/24 03:30:15;;;;;;;32.60;5.50;;;;;;;7.00;100.00;100337.28;5273807;28;20074;-71
2022/11/24 03:32:46;;;;;;;23.57;5.10;;;;;;;7.00;100.00;100354.66;5265958;28;20031;-71
2022/11/24 03:35:18;;;;;;;21.03;5.00;;;;;;;7.01;100.00;100345.94;5272574;28;20455;-71
2022/11/24 03:37:50;;;;;;;26.20;5.43;;;;;;;6.99;100.00;100348.63;5266328;28;20025;-71
2022/11/24 03:40:21;;;;;;;21.23;4.47;;;;;;;7.01;100.00;100344.19;5258732;28;20483;-71
2022/11/24 03:42:52;;;;;;;29.17;7.20;;;;;;;7.02;100.00;100351.06;5270859;28;20029;-71
2022/11/24 03:45:23;;;;;;;28.97;6.73;;;;;;;7.01;100.00;100345.94;5266843;28;20035;-71
2022/11/24 03:47:55;;;;;;;25.30;6.13;;;;;;;7.07;100.00;100347.38;5275109;28;20024;-71
2022/11/24 03:50:27;;;;;;;23.97;5.90;;;;;;;7.16;100.00;100354.69;5263525;28;20047;-71
2022/11/24 03:52:58;;;;;;;26.40;5.40;;;;;;;7.17;100.00;100352.94;5268049;28;20024;-71
2022/11/24 03:55:29;;;;;;;32.80;7.30;;;;;;;7.20;100.00;100353.63;5272695;28;20029;-71
2022/11/24 03:58:01;;;;;;;21.67;5.83;;;;;;;7.20;100.00;100350.16;5272160;28;20040;-71
2022/11/24 04:00:32;;;;;;;28.80;6.23;;;;;;;7.21;100.00;100357.88;5269560;28;20040;-71
2022/11/24 04:03:04;;;;;;;24.30;5.60;;;;;;;7.18;100.00;100349.41;5264443;28;20145;-70
2022/11/24 04:05:35;;;;;;;29.37;5.93;;;;;;;7.14;100.00;100344.34;5266629;28;20028;-71
2022/11/24 04:08:07;;;;;;;22.63;4.30;;;;;;;7.17;100.00;100353.78;5268718;28;20021;-71
2022/11/24 04:10:39;;;;;;;21.17;5.60;;;;;;;7.11;100.00;100354.09;5261634;28;20033;-72
2022/11/24 04:13:12;;;;;;;28.77;5.70;;;;;;;7.19;100.00;100371.94;5268386;28;20025;-71
2022/11/24 04:15:44;;;;;;;21.40;5.03;;;;;;;7.13;100.00;100373.09;5270697;28;20470;-71
2022/11/24 04:18:15;;;;;;;29.90;6.67;;;;;;;7.28;100.00;100381.03;5267061;28;20066;-71
2022/11/24 04:20:51;;;;;;;29.70;5.07;;;;;;;7.33;100.00;100381.63;5269857;28;20184;-71
2022/11/24 04:23:22;;;;;;;27.33;6.90;;;;;;;7.23;100.00;100384.69;5266132;28;20475;-71
2022/11/24 04:25:53;;;;;;;29.90;5.73;;;;;;;7.38;100.00;100398.66;5273677;28;20032;-71
2022/11/24 04:28:24;;;;;;;30.83;7.67;;;;;;;7.29;100.00;100403.53;5267915;28;20065;-71
2022/11/24 04:31:01;;;;;;;25.27;4.93;;;;;;;7.31;100.00;100404.28;5273883;28;20040;-70
2022/11/24 04:33:32;;;;;;;18.57;4.30;;;;;;;7.30;100.00;100413.00;5270277;28;20398;-71
2022/11/24 04:36:04;;;;;;;23.87;4.33;;;;;;;7.23;100.00;100408.13;5263844;28;20029;-71
2022/11/24 04:38:35;;;;;;;15.50;3.70;;;;;;;7.10;100.00;100394.91;5266775;28;20031;-71
2022/11/24 04:41:07;;;;;;;18.70;4.90;;;;;;;7.19;100.00;100414.41;5271942;28;20049;-71
2022/11/24 04:43:38;;;;;;;17.53;3.47;;;;;;;7.16;100.00;100413.78;5250881;28;20132;-71
2022/11/24 04:46:10;;;;;;;16.17;3.80;;;;;;;7.11;100.00;100411.38;5255420;28;20133;-71
2022/11/24 04:48:41;;;;;;;20.93;3.37;;;;;;;7.11;100.00;100414.00;5261727;28;20032;-71
2022/11/24 04:51:14;;;;;;;13.30;2.97;;;;;;;7.07;100.00;100413.31;5270207;28;20047;-71
2022/11/24 04:53:47;;;;;;;10.73;2.93;;;;;;;7.06;100.00;100418.59;5269437;28;20032;-71
2022/11/24 04:56:18;;;;;;;11.37;3.30;;;;;;;7.06;100.00;100423.81;5271962;28;20470;-71
2022/11/24 04:58:49;;;;;;;13.13;2.63;;;;;;;7.01;100.00;100424.91;5260739;28;20078;-71
2022/11/24 05:01:21;;;;;;;8.87;2.50;;;;;;;7.04;100.00;100425.63;5270650;28;20025;-71
2022/11/24 05:03:53;;;;;;;16.77;2.53;;;;;;;7.04;100.00;100426.50;5269981;28;20051;-71
2022/11/24 05:06:24;;;;;;;13.40;2.47;;;;;;;6.95;100.00;100422.59;5266558;28;20079;-71
2022/11/24 05:08:56;;;;;;;10.43;2.57;;;;;;;6.96;100.00;100429.50;5266113;28;20072;-71
2022/11/24 05:11:27;;;;;;;10.50;2.30;;;;;;;6.92;100.00;100421.91;5263303;28;21004;-70
2022/11/24 05:13:59;;;;;;;8.40;2.00;;;;;;;6.94;100.00;100426.13;5266271;28;20382;-71
2022/11/24 05:16:30;;;;;;;7.13;2.03;;;;;;;6.91;100.00;100431.50;5260977;28;20064;-71
2022/11/24 05:19:02;;;;;;;7.80;2.13;;;;;;;6.91;100.00;100436.72;5262841;28;20021;-71
2022/11/24 05:21:33;;;;;;;12.33;2.93;;;;;;;6.93;100.00;100441.84;5259427;28;20025;-71
2022/11/24 05:24:04;;;;;;;11.93;2.03;;;;;;;6.86;100.00;100430.91;5264600;28;20075;-71
2022/11/24 05:26:36;;;;;;;10.60;3.30;;;;;;;6.92;100.00;100443.59;5268018;28;20028;-72
2022/11/24 05:29:07;;;;;;;12.67;2.63;;;;;;;6.90;100.00;100445.41;5263756;28;20108;-70
2022/11/24 05:31:38;;;;;;;9.23;2.83;;;;;;;6.93;100.00;100455.66;5257531;28;20024;-71
2022/11/24 05:34:09;;;;;;;15.13;2.90;;;;;;;6.96;100.00;100454.69;5259920;28;20119;-71
2022/11/24 05:36:53;;;;;;;17.87;4.10;;;;;;;7.00;100.00;100457.06;5254629;28;20070;-71
2022/11/24 05:39:24;;;;;;;19.23;3.47;;;;;;;7.01;100.00;100458.75;5265355;28;20062;-70
2022/11/24 05:41:55;;;;;;;24.63;5.03;;;;;;;7.01;100.00;100453.53;5261226;28;20521;-71
2022/11/24 05:44:27;;;;;;;16.27;3.67;;;;;;;7.02;100.00;100451.75;5271660;28;20029;-71
2022/11/24 05:46:58;;;;;;;20.80;4.97;;;;;;;7.10;100.00;100464.41;5270480;28;20036;-71
2022/11/24 05:49:29;;;;;;;21.87;4.30;;;;;;;7.10;100.00;100464.41;5278109;28;20089;-71
2022/11/24 05:52:00;;;;;;;19.93;5.13;;;;;;;7.13;100.00;100472.91;5274123;28;20035;-71
2022/11/24 05:54:32;;;;;;;27.97;4.53;;;;;;;7.12;100.00;100472.97;5275454;28;20093;-70
2022/11/24 05:57:03;;;;;;;24.07;5.23;;;;;;;7.17;100.00;100483.16;5258985;28;20033;-71
2022/11/24 05:59:34;;;;;;;21.17;3.50;;;;;;;7.08;100.00;100480.09;5275880;28;20456;-70
2022/11/24 06:02:06;;;;;;;25.07;5.80;;;;;;;7.15;100.00;100485.84;5267948;28;20033;-71
2022/11/24 06:04:37;;;;;;;18.20;4.27;;;;;;;7.14;100.00;100489.34;5266371;28;20549;-71
2022/11/24 06:07:11;;;;;;;16.80;3.97;;;;;;;7.23;100.00;100504.53;5274928;28;20447;-71
2022/11/24 06:09:42;;;;;;;17.27;4.10;;;;;;;7.21;100.00;100510.75;5257693;28;20059;-71
2022/11/24 06:12:14;;;;;;;22.80;4.40;;;;;;;7.18;100.00;100509.13;5260109;28;20574;-70
2022/11/24 06:14:45;;;;;;;13.63;4.33;;;;;;;7.21;100.00;100516.78;5265486;28;20508;-71
2022/11/24 06:17:16;;;;;;;20.70;3.57;;;;;;;7.28;100.00;100521.69;5261034;28;20036;-71
2022/11/24 06:19:49;;;;;;;14.63;3.30;;;;;;;7.26;100.00;100524.38;5272285;28;20021;-71
2022/11/24 06:22:20;;;;;;;15.93;3.13;;;;;;;7.24;100.00;100527.03;5274286;28;20055;-71
2022/11/24 06:24:51;;;;;;;13.57;4.30;;;;;;;7.23;100.00;100540.97;5276582;28;20429;-71
2022/11/24 06:27:23;;;;;;;9.87;2.57;;;;;;;7.26;100.00;100546.03;5266452;28;20111;-71
2022/11/24 06:29:54;;;;;;;12.53;3.00;;;;;;;7.20;100.00;100550.72;5262848;28;20041;-70
2022/11/24 06:32:26;;;;;;;8.90;2.70;;;;;;;7.22;100.00;100554.94;5276066;28;20644;-71
2022/11/24 06:34:57;;;;;;;13.10;2.90;;;;;;;7.20;100.00;100556.78;5271684;28;20020;-71
2022/11/24 06:37:29;;;;;;;17.63;2.97;;;;;;;7.23;100.00;100571.38;5264498;28;20024;-71
2022/11/24 06:40:00;;;;;;;12.33;2.63;;;;;;;7.24;100.00;100570.50;5272060;28;20035;-71
2022/11/24 06:42:31;;;;;;;11.57;2.50;;;;;;;7.22;100.00;100586.19;5270953;28;20122;-71
2022/11/24 06:45:04;;;;;;;8.53;2.60;;;;;;;7.17;100.00;100579.53;5267727;28;20043;-71
2022/11/24 06:47:36;;;;;;;9.23;2.03;;;;;;;7.19;100.00;100590.72;5274134;28;20056;-71
2022/11/24 06:50:08;;;;;;;16.70;2.10;;;;;;;7.16;100.00;100591.69;5271390;28;20046;-71
2022/11/24 06:52:39;;;;;;;17.00;2.27;;;;;;;7.14;100.00;100598.72;5269746;28;20399;-71
2022/11/24 06:55:11;;;;;;;5.50;2.63;;;;;;;7.04;100.00;100594.91;5272994;28;20044;-71
2022/11/24 06:57:42;;;;;;;14.17;2.40;;;;;;;7.09;100.00;100605.94;5272308;28;20029;-72
2022/11/24 07:00:14;;;;;;;8.77;2.30;;;;;;;7.09;100.00;100604.19;5270352;28;20037;-71
2022/11/24 07:02:45;;;;;;;11.40;2.07;;;;;;;7.04;100.00;100620.94;5268845;28;20360;-72
2022/11/24 07:05:16;;;;;;;9.00;2.23;;;;;;;7.04;100.00;100628.75;5270355;28;20056;-71
2022/11/24 07:07:47;;;;;;;10.40;2.70;;;;;;;6.97;100.00;100631.66;5268377;28;20029;-71
2022/11/24 07:10:19;;;;;;;8.50;2.10;;;;;;;7.00;100.00;100651.50;5266685;28;20040;-71
2022/11/24 07:12:50;;;;;;;9.50;2.87;;;;;;;7.00;100.00;100657.53;5259269;28;20125;-71
2022/11/24 07:15:21;;;;;;;10.60;2.17;;;;;;;6.95;100.00;100651.72;5270718;28;20111;-72
2022/11/24 07:17:52;;;;;;;8.27;2.13;;;;;;;6.96;100.00;100669.03;5262275;28;20025;-72
2022/11/24 07:20:24;;;;;;;7.37;1.93;;;;;;;6.95;100.00;100672.53;5266547;28;20028;-71
2022/11/24 07:22:56;;;;;;;9.33;2.53;;;;;;;6.95;100.00;100677.75;5265853;28;20033;-71
2022/11/24 07:25:27;;;;;;;9.53;1.40;;;;;;;6.99;100.00;100675.84;5268427;28;20028;-71
2022/11/24 07:27:58;;;;;;;6.60;1.40;;;;;;;6.92;100.00;100675.31;5270222;28;20376;-71
2022/11/24 07:30:30;;;;;;;11.17;2.87;;;;;;;6.94;100.00;100683.88;5270605;28;20033;-71
2022/11/24 07:33:01;;;;;;;9.07;1.90;;;;;;;7.05;100.00;100683.34;5271070;28;20521;-70
2022/11/24 07:35:33;;;;;;;10.23;1.93;;;;;;;6.96;100.00;100684.66;5267355;28;20042;-71
2022/11/24 07:38:04;;;;;;;12.33;2.67;;;;;;;6.93;100.00;100690.00;5270390;28;20042;-71
2022/11/24 07:40:35;;;;;;;10.63;2.07;;;;;;;6.93;100.00;100692.59;5265215;28;20024;-71
2022/11/24 07:43:06;;;;;;;9.97;1.90;;;;;;;6.86;100.00;100691.22;5266660;28;20017;-71
2022/11/24 07:45:38;;;;;;;10.50;1.50;;;;;;;6.87;100.00;100705.91;5266749;28;20060;-70
2022/11/24 07:48:10;;;;;;;10.10;2.00;;;;;;;6.83;100.00;100709.56;5272016;28;20032;-70
2022/11/24 07:50:41;;;;;;;6.23;2.23;;;;;;;6.83;100.00;100709.56;5265468;28;20529;-71
2022/11/24 07:53:13;;;;;;;6.03;1.83;;;;;;;6.76;100.00;100712.47;5266673;28;20021;-70
2022/11/24 07:55:55;;;;;;;9.60;1.97;;;;;;;6.84;100.00;100711.28;5269282;28;20028;-70
2022/11/24 07:58:28;;;;;;;9.33;2.20;;;;;;;6.81;100.00;100724.44;5270207;28;20024;-70
2022/11/24 08:01:09;;;;;;;9.20;2.03;;;;;;;6.84;100.00;100730.31;5276956;28;20029;-70
2022/11/24 08:03:41;;;;;;;9.33;2.30;;;;;;;6.80;100.00;100735.75;5271326;28;20032;-70
2022/11/24 08:06:14;;;;;;;10.33;2.00;;;;;;;6.79;100.00;100740.09;5266199;28;20013;-69
2022/11/24 08:08:46;;;;;;;11.93;2.90;;;;;;;6.71;100.00;100735.25;5270111;28;20044;-69
2022/11/24 08:11:17;;;;;;;9.57;1.97;;;;;;;6.62;100.00;100725.25;5269093;28;20565;-70
2022/11/24 08:13:48;;;;;;;9.53;2.53;;;;;;;6.86;100.00;100746.72;5270895;28;20039;-70
2022/11/24 08:16:20;;;;;;;11.83;2.73;;;;;;;6.86;100.00;100757.13;5272522;28;20032;-70
2022/11/24 08:18:54;;;;;;;13.53;2.87;;;;;;;6.81;100.00;100760.88;5271794;28;20988;-70
2022/11/24 08:21:26;;;;;;;10.47;2.40;;;;;;;6.81;100.00;100763.47;5269789;28;20032;-70
2022/11/24 08:23:57;;;;;;;8.80;2.23;;;;;;;6.80;100.00;100766.97;5272583;28;20035;-70
2022/11/24 08:26:28;;;;;;;8.90;1.73;;;;;;;6.90;100.00;100770.84;5269165;28;20036;-70
2022/11/24 08:29:00;;;;;;;11.00;2.80;;;;;;;6.90;100.00;100781.28;5268613;28;20039;-70
2022/11/24 08:31:32;;;;;;;10.30;2.67;;;;;;;6.90;100.00;100774.31;5270952;28;20036;-70
2022/11/24 08:34:04;;;;;;;17.17;2.70;;;;;;;6.91;100.00;100780.38;5270793;28;20098;-70
2022/11/24 08:36:36;;;;;;;15.27;3.67;;;;;;;6.92;100.00;100781.19;5271265;28;20039;-69
2022/11/24 08:39:10;;;;;;;11.60;2.40;;;;;;;6.83;100.00;100780.72;5269323;28;20467;-70
2022/11/24 08:41:41;;;;;;;;;;;;;;;7.00;100.00;100792.09;5270324;28;20047;-69
2022/11/24 08:44:14;;;;;;;11.53;2.90;;;;;;;6.93;100.00;100799.34;5271249;28;19963;-70
2022/11/24 08:46:46;;;;;;;13.30;3.27;;;;;;;6.96;100.00;100804.44;5271768;28;20502;-70
2022/11/24 08:49:17;;;;;;;11.10;2.40;;;;;;;7.00;100.00;100803.38;5269222;28;20070;-70
2022/11/24 08:51:50;;;;;;;12.57;2.23;;;;;;;6.99;100.00;100806.91;5268342;28;20526;-70
2022/11/24 08:54:21;;;;;;;11.27;3.37;;;;;;;6.98;100.00;100815.63;5271324;28;20060;-70
2022/11/24 08:56:52;;;;;;;17.97;4.50;;;;;;;7.06;100.00;100830.06;5272559;28;20229;-70
2022/11/24 08:59:24;;;;;;;11.77;3.00;;;;;;;7.08;100.00;100829.09;5268380;28;20032;-70
2022/11/24 09:01:55;;;;;;;13.87;2.90;;;;;;;7.13;100.00;100836.69;5272748;28;20023;-70
2022/11/24 09:04:26;;;;;;;11.70;3.10;;;;;;;7.17;100.00;100837.38;5267383;28;20110;-70
2022/11/24 09:06:57;;;;;;;13.47;3.87;;;;;;;7.20;100.00;100847.66;5275246;28;20024;-70
2022/11/24 09:09:29;;;;;;;13.23;2.70;;;;;;;7.22;100.00;100841.47;5271330;28;20048;-71
2022/11/24 09:12:00;;;;;;;9.00;2.40;;;;;;;7.25;100.00;100838.72;5271857;28;20246;-71
2022/11/24 09:14:31;;;;;;;17.10;3.10;;;;;;;7.21;100.00;100823.31;5270005;28;20486;-71
2022/11/24 09:17:02;;;;;;;17.37;2.80;;;;;;;7.30;100.00;100842.84;5271806;28;20437;-70
2022/11/24 09:19:34;;;;;;;13.23;3.37;;;;;;;7.32;100.00;100854.06;5267645;28;20376;-71
2022/11/24 09:22:05;;;;;;;18.60;3.60;;;;;;;7.38;100.00;100845.97;5270374;28;20460;-71
2022/11/24 09:24:36;;;;;;;16.33;3.37;;;;;;;7.40;100.00;100844.13;5267142;28;20017;-70
2022/11/24 09:27:08;;;;;;;13.93;2.80;;;;;;;7.54;100.00;100858.28;5274558;28;20025;-71
2022/11/24 09:29:39;;;;;;;14.93;3.77;;;;;;;8.29;100.00;100868.59;5270325;28;20032;-71
2022/11/24 09:32:10;;;;;;;17.00;2.60;;;;;;;9.34;100.00;100871.13;5275856;28;20067;-70
2022/11/24 09:34:41;;;;;;;17.83;4.03;;;;;;;10.05;100.00;100875.97;5273297;28;20089;-70
2022/11/24 09:37:13;;;;;;;15.60;3.70;;;;;;;10.24;100.00;100878.38;5273082;28;20056;-70
2022/11/24 09:39:44;;;;;;;13.33;3.80;;;;;;;10.13;100.00;100871.13;5270477;28;20032;-70
2022/11/24 09:42:33;;;;;;;20.00;4.07;;;;;;;9.99;100.00;100882.41;5270884;28;20027;-71
2022/11/24 09:45:34;;;;;;;17.10;4.20;;;;;;;9.80;100.00;100883.44;5274839;28;20060;-70
2022/11/24 09:48:22;;;;;;;14.73;3.53;;;;;;;9.70;100.00;100886.66;5271334;28;20070;-74
2022/11/24 09:50:58;;;;;;;16.73;3.23;;;;;;;9.39;100.00;100900.47;5271849;28;20474;-73
2022/11/24 09:53:46;;;;;;;15.10;3.90;;;;;;;9.29;100.00;100892.28;5273075;28;20426;-75
2022/11/24 09:56:26;;;;;;;13.60;3.90;;;;;;;9.26;100.00;100909.91;5270408;28;20033;-72
2022/11/24 09:59:14;;;;;;;16.43;4.60;;;;;;;9.27;100.00;100907.19;5270255;28;20374;-71
2022/11/24 10:01:47;;;;;;;15.03;3.40;;;;;;;9.15;100.00;100910.44;5269236;28;20668;-71
2022/11/24 10:04:24;;;;;;;13.43;4.20;;;;;;;9.10;100.00;100902.88;5272024;28;21009;-73
2022/11/24 10:07:04;;;;;;;15.57;3.93;;;;;;;9.12;100.00;100915.84;5271383;28;20024;-73
2022/11/24 10:09:49;;;;;;;15.17;3.63;;;;;;;9.24;100.00;100911.75;5271814;28;20059;-73
2022/11/24 10:12:41;;;;;;;23.13;4.43;;;;;;;9.12;100.00;100914.09;5270338;28;20056;-73
2022/11/24 10:15:24;;;;;;;20.60;5.00;;;;;;;9.18;100.00;100924.22;5274758;28;20028;-73
2022/11/24 10:18:01;;;;;;;19.57;4.20;;;;;;;9.18;100.00;100926.00;5269683;28;20036;-73
2022/11/24 10:21:03;;;;;;;16.03;4.00;;;;;;;9.27;100.00;100927.25;5269285;28;20051;-73
2022/11/24 10:23:44;;;;;;;16.60;4.20;;;;;;;9.14;100.00;100935.75;5271418;28;20028;-71
2022/11/24 10:26:25;;;;;;;20.77;3.80;;;;;;;9.18;100.00;100942.50;5266381;28;20111;-72
2022/11/24 10:28:56;;;;;;;22.17;5.33;;;;;;;9.31;100.00;100934.00;5269512;28;20029;-73
2022/11/24 10:31:40;;;;;;;19.40;3.63;;;;;;;9.31;100.00;100949.69;5272371;28;20035;-72
2022/11/24 10:34:20;;;;;;;11.80;3.20;;;;;;;9.34;100.00;100943.47;5273116;28;21364;-72
2022/11/24 10:37:10;;;;;;;13.50;3.53;;;;;;;9.48;100.00;100948.78;5268733;28;20035;-72
2022/11/24 10:39:54;;;;;;;15.93;4.53;;;;;;;9.47;100.00;100954.09;5271055;28;20487;-71
2022/11/24 10:42:31;;;;;;;16.15;3.78;;;;;;;9.44;100.00;100944.66;5270829;28;20020;-72
2022/11/24 10:45:08;;;;;;;18.43;3.73;;;;;;;9.51;100.00;100951.25;5264843;28;20029;-72
2022/11/24 10:47:42;;;;;;;10.77;2.77;;;;;;;9.52;100.00;100945.09;5263823;28;20439;-72
2022/11/24 10:50:21;;;;;;;15.13;4.00;;;;;;;9.58;100.00;100956.16;5262558;28;20031;-72
2022/11/24 10:53:03;;;;;;;12.00;3.77;;;;;;;9.55;100.00;100954.53;5263942;28;20029;-72
2022/11/24 10:55:53;;;;;;;13.90;3.30;;;;;;;9.59;100.00;100958.69;5262230;28;20028;-72
2022/11/24 10:58:33;;;;;;;18.93;4.43;;;;;;;9.63;100.00;100948.91;5262248;28;20147;-72
2022/11/24 11:01:13;;;;;;;15.53;3.97;;;;;;;9.58;100.00;100946.53;5262494;28;20040;-72
2022/11/24 11:03:47;;;;;;;16.43;3.17;;;;;;;9.64;100.00;100943.59;5266016;28;20127;-72
2022/11/24 11:06:23;;;;;;;23.05;4.70;;;;;;;9.81;100.00;100936.56;5259815;28;20661;-72
2022/11/24 11:09:06;;;;;;;13.20;3.37;;;;;;;9.84;100.00;100940.81;5260090;28;20047;-71
2022/11/24 11:11:38;;;;;;;15.63;3.17;;;;;;;9.82;100.00;100940.91;5264848;28;20052;-72
2022/11/24 11:14:11;;;;;;;18.37;4.53;;;;;;;9.77;100.00;100940.31;5264082;28;20065;-72
2022/11/24 11:16:52;;;;;;;15.20;4.10;;;;;;;9.84;100.00;100933.81;5265980;28;20119;-71
2022/11/24 11:19:38;;;;;;;23.90;4.03;;;;;;;9.85;100.00;100943.34;5263138;28;20124;-72
2022/11/24 11:22:09;;;;;;;16.63;3.77;;;;;;;9.85;100.00;100942.47;5262818;28;20489;-72
2022/11/24 11:24:43;;;;;;;16.60;4.17;;;;;;;9.95;100.00;100937.59;5265192;28;20020;-72
2022/11/24 11:27:23;;;;;;;14.27;3.72;;;;;;;9.99;100.00;100944.34;5264863;28;20106;-72
2022/11/24 11:30:15;;;;;;;16.03;3.70;;;;;;;10.03;100.00;100945.88;5262285;28;20029;-71
2022/11/24 11:32:58;;;;;;;11.17;3.83;;;;;;;10.06;100.00;100945.69;5265372;28;20032;-71
2022/11/24 11:35:35;;;;;;;18.60;6.87;;;;;;;10.03;100.00;100943.25;5265572;28;20043;-71
2022/11/24 11:38:06;;;;;;;15.03;4.70;;;;;;;10.07;100.00;100952.59;5271532;28;20127;-70
2022/11/24 11:40:41;;;;;;;13.23;2.83;;;;;;;9.86;100.00;100926.69;5271189;28;20108;-70
2022/11/24 11:43:24;;;;;;;22.37;4.43;;;;;;;9.93;100.00;100946.38;5260272;28;20462;-71
2022/11/24 11:46:11;;;;;;;19.13;4.70;;;;;;;9.97;100.00;100948.81;5270362;28;20426;-71
2022/11/24 11:48:45;;;;;;;20.77;4.93;;;;;;;9.91;100.00;100945.59;5263233;28;20028;-71